sensor_id;sensor_type;location;lat;lon;timestamp;P1;durP1;ratioP1;P2;durP2;ratioP2
44272;SDS011;29964;17.182;-96.766;2023-05-17T00:00:11;5.13;;;1.83;;
44272;SDS011;29964;17.182;-96.766;2023-05-17T00:02:38;1.77;;;1.30;;
44272;SDS011;29964;17.182;-96.766;2023-05-17T00:05:05;2.13;;;1.45;;
44272;SDS011;29964;17.182;-96.766;2023-05-17T00:07:32;2.42;;;1.45;;
44272;SDS011;29964;17.182;-96.766;2023-05-17T00:09:58;2.10;;;1.27;;
44272;SDS011;29964;17.182;-96.766;2023-05-17T00:12:25;4.13;;;2.00;;
44272;SDS011;29964;17.182;-96.766;2023-05-17T00:14:52;2.70;;;1.80;;
44272;SDS011;29964;17.182;-96.766;2023-05-17T00:17:19;2.25;;;1.55;;
44272;SDS011;29964;17.182;-96.766;2023-05-17T00:19:45;2.15;;;1.33;;
44272;SDS011;29964;17.182;-96.766;2023-05-17T00:22:12;1.75;;;1.25;;
44272;SDS011;29964;17.182;-96.766;2023-05-17T00:24:39;2.33;;;1.42;;
44272;SDS011;29964;17.182;-96.766;2023-05-17T00:27:05;1.92;;;1.33;;
44272;SDS011;29964;17.182;-96.766;2023-05-17T00:29:32;2.60;;;1.83;;
44272;SDS011;29964;17.182;-96.766;2023-05-17T00:31:59;2.15;;;1.58;;
44272;SDS011;29964;17.182;-96.766;2023-05-17T00:34:26;4.95;;;2.33;;
44272;SDS011;29964;17.182;-96.766;2023-05-17T00:36:52;4.87;;;1.87;;
44272;SDS011;29964;17.182;-96.766;2023-05-17T00:39:19;2.75;;;1.45;;
44272;SDS011;29964;17.182;-96.766;2023-05-17T00:41:46;4.72;;;2.03;;
44272;SDS011;29964;17.182;-96.766;2023-05-17T00:44:13;5.65;;;2.90;;
44272;SDS011;29964;17.182;-96.766;2023-05-17T00:46:39;3.50;;;1.73;;
44272;SDS011;29964;17.182;-96.766;2023-05-17T00:49:06;1.90;;;1.30;;
44272;SDS011;29964;17.182;-96.766;2023-05-17T00:51:33;5.13;;;1.83;;
44272;SDS011;29964;17.182;-96.766;2023-05-17T00:54:00;2.73;;;2.00;;
44272;SDS011;29964;17.182;-96.766;2023-05-17T00:56:29;3.47;;;2.13;;
44272;SDS011;29964;17.182;-96.766;2023-05-17T00:58:57;3.03;;;1.80;;
44272;SDS011;29964;17.182;-96.766;2023-05-17T01:01:25;1.43;;;1.17;;
44272;SDS011;29964;17.182;-96.766;2023-05-17T01:03:52;3.67;;;1.77;;
44272;SDS011;29964;17.182;-96.766;2023-05-17T01:06:19;4.63;;;2.07;;
44272;SDS011;29964;17.182;-96.766;2023-05-17T01:08:45;1.97;;;1.43;;
44272;SDS011;29964;17.182;-96.766;2023-05-17T01:13:57;4.67;;;1.83;;
44272;SDS011;29964;17.182;-96.766;2023-05-17T01:16:43;10.03;;;1.77;;
44272;SDS011;29964;17.182;-96.766;2023-05-17T01:21:56;2.70;;;1.70;;
44272;SDS011;29964;17.182;-96.766;2023-05-17T01:27:10;3.40;;;1.70;;
44272;SDS011;29964;17.182;-96.766;2023-05-17T01:29:38;11.07;;;1.97;;
44272;SDS011;29964;17.182;-96.766;2023-05-17T01:32:06;2.60;;;1.67;;
44272;SDS011;29964;17.182;-96.766;2023-05-17T01:34:34;3.63;;;1.60;;
44272;SDS011;29964;17.182;-96.766;2023-05-17T01:37:00;2.93;;;1.40;;
44272;SDS011;29964;17.182;-96.766;2023-05-17T01:39:27;2.90;;;2.00;;
44272;SDS011;29964;17.182;-96.766;2023-05-17T01:42:40;10.67;;;1.73;;
44272;SDS011;29964;17.182;-96.766;2023-05-17T01:47:24;4.83;;;2.17;;
44272;SDS011;29964;17.182;-96.766;2023-05-17T01:49:54;3.37;;;2.10;;
44272;SDS011;29964;17.182;-96.766;2023-05-17T01:52:44;3.37;;;1.60;;
44272;SDS011;29964;17.182;-96.766;2023-05-17T01:55:18;1.27;;;0.90;;
44272;SDS011;29964;17.182;-96.766;2023-05-17T01:57:51;2.97;;;1.57;;
44272;SDS011;29964;17.182;-96.766;2023-05-17T02:00:18;2.70;;;1.60;;
44272;SDS011;29964;17.182;-96.766;2023-05-17T02:02:45;2.03;;;1.53;;
44272;SDS011;29964;17.182;-96.766;2023-05-17T02:05:11;1.60;;;1.27;;
44272;SDS011;29964;17.182;-96.766;2023-05-17T02:07:38;2.57;;;1.73;;
44272;SDS011;29964;17.182;-96.766;2023-05-17T02:10:05;4.63;;;3.30;;
44272;SDS011;29964;17.182;-96.766;2023-05-17T02:12:40;28.87;;;2.87;;
44272;SDS011;29964;17.182;-96.766;2023-05-17T02:15:07;4.90;;;2.57;;
44272;SDS011;29964;17.182;-96.766;2023-05-17T02:17:36;3.83;;;2.47;;
44272;SDS011;29964;17.182;-96.766;2023-05-17T02:20:06;6.80;;;1.87;;
44272;SDS011;29964;17.182;-96.766;2023-05-17T02:22:33;2.43;;;1.73;;
44272;SDS011;29964;17.182;-96.766;2023-05-17T02:25:00;5.90;;;2.50;;
44272;SDS011;29964;17.182;-96.766;2023-05-17T02:27:27;4.07;;;1.93;;
44272;SDS011;29964;17.182;-96.766;2023-05-17T02:29:54;3.10;;;1.77;;
44272;SDS011;29964;17.182;-96.766;2023-05-17T02:32:20;3.67;;;2.43;;
44272;SDS011;29964;17.182;-96.766;2023-05-17T02:34:47;4.40;;;2.43;;
44272;SDS011;29964;17.182;-96.766;2023-05-17T02:37:14;5.53;;;2.23;;
44272;SDS011;29964;17.182;-96.766;2023-05-17T02:39:41;6.93;;;3.20;;
44272;SDS011;29964;17.182;-96.766;2023-05-17T02:42:07;11.93;;;3.70;;
44272;SDS011;29964;17.182;-96.766;2023-05-17T02:44:34;5.97;;;2.60;;
44272;SDS011;29964;17.182;-96.766;2023-05-17T02:47:01;6.27;;;3.07;;
44272;SDS011;29964;17.182;-96.766;2023-05-17T02:49:28;3.07;;;2.17;;
44272;SDS011;29964;17.182;-96.766;2023-05-17T02:51:54;7.07;;;3.00;;
44272;SDS011;29964;17.182;-96.766;2023-05-17T02:54:21;2.70;;;1.87;;
44272;SDS011;29964;17.182;-96.766;2023-05-17T02:56:48;9.70;;;2.93;;
44272;SDS011;29964;17.182;-96.766;2023-05-17T02:59:15;3.70;;;2.30;;
44272;SDS011;29964;17.182;-96.766;2023-05-17T03:01:42;7.63;;;1.97;;
44272;SDS011;29964;17.182;-96.766;2023-05-17T03:04:08;3.60;;;2.20;;
44272;SDS011;29964;17.182;-96.766;2023-05-17T03:06:36;8.53;;;2.57;;
44272;SDS011;29964;17.182;-96.766;2023-05-17T03:09:03;2.63;;;2.00;;
44272;SDS011;29964;17.182;-96.766;2023-05-17T03:11:31;4.87;;;3.17;;
44272;SDS011;29964;17.182;-96.766;2023-05-17T03:13:58;3.53;;;2.50;;
44272;SDS011;29964;17.182;-96.766;2023-05-17T03:16:24;3.80;;;2.23;;
44272;SDS011;29964;17.182;-96.766;2023-05-17T03:18:51;4.87;;;2.67;;
44272;SDS011;29964;17.182;-96.766;2023-05-17T03:21:18;2.33;;;1.20;;
44272;SDS011;29964;17.182;-96.766;2023-05-17T03:23:44;2.93;;;2.23;;
44272;SDS011;29964;17.182;-96.766;2023-05-17T03:26:11;4.43;;;3.13;;
44272;SDS011;29964;17.182;-96.766;2023-05-17T03:28:38;4.67;;;3.07;;
44272;SDS011;29964;17.182;-96.766;2023-05-17T03:31:05;13.40;;;2.87;;
44272;SDS011;29964;17.182;-96.766;2023-05-17T03:33:32;6.93;;;2.90;;
44272;SDS011;29964;17.182;-96.766;2023-05-17T03:35:58;3.67;;;2.77;;
44272;SDS011;29964;17.182;-96.766;2023-05-17T03:38:25;19.70;;;2.90;;
44272;SDS011;29964;17.182;-96.766;2023-05-17T03:40:52;8.10;;;2.40;;
44272;SDS011;29964;17.182;-96.766;2023-05-17T03:43:19;7.10;;;3.33;;
44272;SDS011;29964;17.182;-96.766;2023-05-17T03:45:45;4.10;;;2.97;;
44272;SDS011;29964;17.182;-96.766;2023-05-17T03:48:12;5.73;;;2.80;;
44272;SDS011;29964;17.182;-96.766;2023-05-17T03:50:39;3.57;;;2.67;;
44272;SDS011;29964;17.182;-96.766;2023-05-17T03:53:06;3.20;;;1.77;;
44272;SDS011;29964;17.182;-96.766;2023-05-17T03:55:32;3.97;;;2.70;;
44272;SDS011;29964;17.182;-96.766;2023-05-17T03:57:59;4.77;;;2.90;;
44272;SDS011;29964;17.182;-96.766;2023-05-17T04:00:26;7.03;;;2.83;;
44272;SDS011;29964;17.182;-96.766;2023-05-17T04:02:53;3.53;;;2.53;;
44272;SDS011;29964;17.182;-96.766;2023-05-17T04:05:19;4.60;;;3.20;;
44272;SDS011;29964;17.182;-96.766;2023-05-17T04:07:46;10.50;;;4.93;;
44272;SDS011;29964;17.182;-96.766;2023-05-17T04:10:13;4.60;;;2.57;;
44272;SDS011;29964;17.182;-96.766;2023-05-17T04:12:40;3.60;;;1.90;;
44272;SDS011;29964;17.182;-96.766;2023-05-17T04:15:07;5.00;;;2.27;;
44272;SDS011;29964;17.182;-96.766;2023-05-17T04:17:34;2.37;;;1.57;;
44272;SDS011;29964;17.182;-96.766;2023-05-17T04:20:01;3.47;;;2.17;;
44272;SDS011;29964;17.182;-96.766;2023-05-17T04:22:28;2.17;;;1.53;;
44272;SDS011;29964;17.182;-96.766;2023-05-17T04:24:55;1.90;;;1.47;;
44272;SDS011;29964;17.182;-96.766;2023-05-17T04:27:22;4.07;;;2.20;;
44272;SDS011;29964;17.182;-96.766;2023-05-17T04:29:49;3.43;;;1.93;;
44272;SDS011;29964;17.182;-96.766;2023-05-17T04:32:16;1.93;;;1.50;;
44272;SDS011;29964;17.182;-96.766;2023-05-17T04:34:45;1.97;;;1.47;;
44272;SDS011;29964;17.182;-96.766;2023-05-17T04:37:12;4.57;;;1.73;;
44272;SDS011;29964;17.182;-96.766;2023-05-17T04:39:40;2.00;;;1.57;;
44272;SDS011;29964;17.182;-96.766;2023-05-17T04:42:06;5.40;;;2.40;;
44272;SDS011;29964;17.182;-96.766;2023-05-17T04:44:34;2.23;;;1.53;;
44272;SDS011;29964;17.182;-96.766;2023-05-17T04:47:00;3.50;;;2.00;;
44272;SDS011;29964;17.182;-96.766;2023-05-17T04:49:28;3.13;;;1.90;;
44272;SDS011;29964;17.182;-96.766;2023-05-17T04:51:54;3.37;;;2.03;;
44272;SDS011;29964;17.182;-96.766;2023-05-17T04:54:21;3.27;;;2.20;;
44272;SDS011;29964;17.182;-96.766;2023-05-17T04:56:49;4.70;;;2.10;;
44272;SDS011;29964;17.182;-96.766;2023-05-17T04:59:16;2.57;;;1.70;;
44272;SDS011;29964;17.182;-96.766;2023-05-17T05:01:42;3.23;;;2.03;;
44272;SDS011;29964;17.182;-96.766;2023-05-17T05:04:09;5.60;;;2.30;;
44272;SDS011;29964;17.182;-96.766;2023-05-17T05:06:36;20.20;;;2.33;;
44272;SDS011;29964;17.182;-96.766;2023-05-17T05:09:03;3.70;;;1.97;;
44272;SDS011;29964;17.182;-96.766;2023-05-17T05:11:29;3.50;;;2.50;;
44272;SDS011;29964;17.182;-96.766;2023-05-17T05:13:56;4.43;;;2.37;;
44272;SDS011;29964;17.182;-96.766;2023-05-17T05:16:23;3.73;;;1.90;;
44272;SDS011;29964;17.182;-96.766;2023-05-17T05:18:50;4.63;;;2.47;;
44272;SDS011;29964;17.182;-96.766;2023-05-17T05:21:17;2.63;;;2.07;;
44272;SDS011;29964;17.182;-96.766;2023-05-17T05:23:43;3.60;;;2.20;;
44272;SDS011;29964;17.182;-96.766;2023-05-17T05:26:10;3.40;;;2.10;;
44272;SDS011;29964;17.182;-96.766;2023-05-17T05:28:37;2.70;;;2.00;;
44272;SDS011;29964;17.182;-96.766;2023-05-17T05:31:04;3.67;;;2.40;;
44272;SDS011;29964;17.182;-96.766;2023-05-17T05:33:30;3.73;;;2.00;;
44272;SDS011;29964;17.182;-96.766;2023-05-17T05:35:57;4.53;;;2.90;;
44272;SDS011;29964;17.182;-96.766;2023-05-17T05:38:24;2.67;;;2.03;;
44272;SDS011;29964;17.182;-96.766;2023-05-17T05:40:51;4.67;;;2.77;;
44272;SDS011;29964;17.182;-96.766;2023-05-17T05:43:18;5.23;;;2.60;;
44272;SDS011;29964;17.182;-96.766;2023-05-17T05:45:45;2.90;;;2.17;;
44272;SDS011;29964;17.182;-96.766;2023-05-17T05:48:12;2.77;;;2.00;;
44272;SDS011;29964;17.182;-96.766;2023-05-17T05:50:40;4.93;;;2.33;;
44272;SDS011;29964;17.182;-96.766;2023-05-17T05:53:10;3.37;;;2.20;;
44272;SDS011;29964;17.182;-96.766;2023-05-17T05:55:40;4.70;;;1.97;;
44272;SDS011;29964;17.182;-96.766;2023-05-17T05:58:07;3.50;;;2.30;;
44272;SDS011;29964;17.182;-96.766;2023-05-17T06:00:34;2.63;;;1.93;;
44272;SDS011;29964;17.182;-96.766;2023-05-17T06:03:01;3.50;;;2.40;;
44272;SDS011;29964;17.182;-96.766;2023-05-17T06:05:28;2.13;;;1.70;;
44272;SDS011;29964;17.182;-96.766;2023-05-17T06:07:55;3.93;;;2.07;;
44272;SDS011;29964;17.182;-96.766;2023-05-17T06:10:22;3.03;;;2.27;;
44272;SDS011;29964;17.182;-96.766;2023-05-17T06:12:48;3.97;;;1.60;;
44272;SDS011;29964;17.182;-96.766;2023-05-17T06:15:15;25.17;;;2.97;;
44272;SDS011;29964;17.182;-96.766;2023-05-17T06:17:42;17.53;;;3.60;;
44272;SDS011;29964;17.182;-96.766;2023-05-17T06:20:09;7.30;;;4.67;;
44272;SDS011;29964;17.182;-96.766;2023-05-17T06:22:36;8.60;;;4.43;;
44272;SDS011;29964;17.182;-96.766;2023-05-17T06:25:02;6.17;;;4.63;;
44272;SDS011;29964;17.182;-96.766;2023-05-17T06:27:30;11.93;;;7.30;;
44272;SDS011;29964;17.182;-96.766;2023-05-17T06:29:58;12.30;;;6.50;;
44272;SDS011;29964;17.182;-96.766;2023-05-17T06:32:27;8.27;;;4.07;;
44272;SDS011;29964;17.182;-96.766;2023-05-17T06:34:54;5.90;;;3.77;;
44272;SDS011;29964;17.182;-96.766;2023-05-17T06:37:21;4.73;;;2.77;;
44272;SDS011;29964;17.182;-96.766;2023-05-17T06:39:51;6.43;;;2.73;;
44272;SDS011;29964;17.182;-96.766;2023-05-17T06:42:17;2.63;;;1.93;;
44272;SDS011;29964;17.182;-96.766;2023-05-17T06:44:44;2.53;;;1.93;;
44272;SDS011;29964;17.182;-96.766;2023-05-17T06:47:11;5.27;;;3.07;;
44272;SDS011;29964;17.182;-96.766;2023-05-17T06:49:38;5.17;;;3.20;;
44272;SDS011;29964;17.182;-96.766;2023-05-17T06:52:04;7.03;;;3.80;;
44272;SDS011;29964;17.182;-96.766;2023-05-17T06:54:31;6.77;;;3.00;;
44272;SDS011;29964;17.182;-96.766;2023-05-17T06:56:59;4.83;;;2.57;;
44272;SDS011;29964;17.182;-96.766;2023-05-17T06:59:25;3.17;;;2.20;;
44272;SDS011;29964;17.182;-96.766;2023-05-17T07:01:52;2.93;;;2.13;;
44272;SDS011;29964;17.182;-96.766;2023-05-17T07:04:19;3.60;;;2.23;;
44272;SDS011;29964;17.182;-96.766;2023-05-17T07:06:46;6.20;;;2.83;;
44272;SDS011;29964;17.182;-96.766;2023-05-17T07:09:13;3.77;;;2.47;;
44272;SDS011;29964;17.182;-96.766;2023-05-17T07:11:39;2.50;;;1.57;;
44272;SDS011;29964;17.182;-96.766;2023-05-17T07:14:06;3.43;;;2.43;;
44272;SDS011;29964;17.182;-96.766;2023-05-17T07:16:33;4.43;;;2.83;;
44272;SDS011;29964;17.182;-96.766;2023-05-17T07:19:00;7.93;;;3.20;;
44272;SDS011;29964;17.182;-96.766;2023-05-17T07:21:26;3.50;;;2.00;;
44272;SDS011;29964;17.182;-96.766;2023-05-17T07:23:54;2.70;;;1.77;;
44272;SDS011;29964;17.182;-96.766;2023-05-17T07:26:20;5.93;;;2.97;;
44272;SDS011;29964;17.182;-96.766;2023-05-17T07:28:47;6.43;;;4.10;;
44272;SDS011;29964;17.182;-96.766;2023-05-17T07:31:14;13.90;;;5.77;;
44272;SDS011;29964;17.182;-96.766;2023-05-17T07:33:41;5.23;;;3.77;;
44272;SDS011;29964;17.182;-96.766;2023-05-17T07:36:08;5.10;;;3.00;;
44272;SDS011;29964;17.182;-96.766;2023-05-17T07:38:35;10.63;;;5.83;;
44272;SDS011;29964;17.182;-96.766;2023-05-17T07:41:02;16.00;;;8.97;;
44272;SDS011;29964;17.182;-96.766;2023-05-17T07:43:35;10.03;;;6.13;;
44272;SDS011;29964;17.182;-96.766;2023-05-17T07:46:02;10.67;;;6.27;;
44272;SDS011;29964;17.182;-96.766;2023-05-17T07:48:29;15.70;;;7.57;;
44272;SDS011;29964;17.182;-96.766;2023-05-17T07:50:56;10.23;;;6.87;;
44272;SDS011;29964;17.182;-96.766;2023-05-17T07:53:22;12.53;;;6.47;;
44272;SDS011;29964;17.182;-96.766;2023-05-17T07:55:49;12.27;;;7.53;;
44272;SDS011;29964;17.182;-96.766;2023-05-17T07:58:16;12.23;;;7.07;;
44272;SDS011;29964;17.182;-96.766;2023-05-17T08:00:43;6.77;;;4.70;;
44272;SDS011;29964;17.182;-96.766;2023-05-17T08:03:10;5.80;;;3.80;;
44272;SDS011;29964;17.182;-96.766;2023-05-17T08:05:37;13.37;;;6.47;;
44272;SDS011;29964;17.182;-96.766;2023-05-17T08:08:03;19.63;;;4.80;;
44272;SDS011;29964;17.182;-96.766;2023-05-17T08:10:30;6.90;;;4.67;;
44272;SDS011;29964;17.182;-96.766;2023-05-17T08:12:57;5.73;;;3.80;;
44272;SDS011;29964;17.182;-96.766;2023-05-17T08:15:24;3.27;;;2.63;;
44272;SDS011;29964;17.182;-96.766;2023-05-17T08:17:51;7.77;;;4.37;;
44272;SDS011;29964;17.182;-96.766;2023-05-17T08:20:17;5.53;;;4.57;;
44272;SDS011;29964;17.182;-96.766;2023-05-17T08:22:44;4.33;;;2.90;;
44272;SDS011;29964;17.182;-96.766;2023-05-17T08:25:11;4.40;;;3.00;;
44272;SDS011;29964;17.182;-96.766;2023-05-17T08:27:38;6.90;;;3.17;;
44272;SDS011;29964;17.182;-96.766;2023-05-17T08:30:05;3.40;;;2.77;;
44272;SDS011;29964;17.182;-96.766;2023-05-17T08:32:32;4.23;;;3.33;;
44272;SDS011;29964;17.182;-96.766;2023-05-17T08:34:58;8.47;;;2.90;;
44272;SDS011;29964;17.182;-96.766;2023-05-17T08:37:25;4.80;;;3.33;;
44272;SDS011;29964;17.182;-96.766;2023-05-17T08:39:52;5.00;;;4.00;;
44272;SDS011;29964;17.182;-96.766;2023-05-17T08:42:20;21.17;;;3.67;;
44272;SDS011;29964;17.182;-96.766;2023-05-17T08:44:51;7.80;;;3.57;;
44272;SDS011;29964;17.182;-96.766;2023-05-17T08:47:19;5.77;;;4.17;;
44272;SDS011;29964;17.182;-96.766;2023-05-17T08:49:56;3.43;;;2.53;;
44272;SDS011;29964;17.182;-96.766;2023-05-17T08:52:29;4.90;;;3.57;;
44272;SDS011;29964;17.182;-96.766;2023-05-17T08:54:57;4.77;;;3.07;;
44272;SDS011;29964;17.182;-96.766;2023-05-17T08:57:30;3.53;;;2.50;;
44272;SDS011;29964;17.182;-96.766;2023-05-17T08:59:57;4.60;;;3.17;;
44272;SDS011;29964;17.182;-96.766;2023-05-17T09:02:42;7.47;;;2.50;;
44272;SDS011;29964;17.182;-96.766;2023-05-17T09:05:09;9.93;;;4.73;;
44272;SDS011;29964;17.182;-96.766;2023-05-17T09:07:37;4.67;;;2.13;;
44272;SDS011;29964;17.182;-96.766;2023-05-17T09:10:04;2.10;;;1.50;;
44272;SDS011;29964;17.182;-96.766;2023-05-17T09:12:32;2.67;;;2.10;;
44272;SDS011;29964;17.182;-96.766;2023-05-17T09:15:15;3.83;;;2.53;;
44272;SDS011;29964;17.182;-96.766;2023-05-17T09:17:42;3.63;;;2.17;;
44272;SDS011;29964;17.182;-96.766;2023-05-17T09:20:09;2.77;;;1.90;;
44272;SDS011;29964;17.182;-96.766;2023-05-17T09:22:36;3.40;;;2.47;;
44272;SDS011;29964;17.182;-96.766;2023-05-17T09:25:03;2.70;;;1.90;;
44272;SDS011;29964;17.182;-96.766;2023-05-17T09:27:30;2.73;;;2.20;;
44272;SDS011;29964;17.182;-96.766;2023-05-17T09:29:57;1.97;;;1.53;;
44272;SDS011;29964;17.182;-96.766;2023-05-17T09:32:24;2.87;;;1.60;;
44272;SDS011;29964;17.182;-96.766;2023-05-17T09:34:52;3.27;;;2.03;;
44272;SDS011;29964;17.182;-96.766;2023-05-17T09:37:22;4.33;;;2.10;;
44272;SDS011;29964;17.182;-96.766;2023-05-17T09:39:50;4.67;;;2.43;;
44272;SDS011;29964;17.182;-96.766;2023-05-17T09:42:17;5.23;;;2.43;;
44272;SDS011;29964;17.182;-96.766;2023-05-17T09:44:54;5.37;;;3.27;;
44272;SDS011;29964;17.182;-96.766;2023-05-17T09:47:27;4.20;;;2.17;;
44272;SDS011;29964;17.182;-96.766;2023-05-17T09:49:55;4.50;;;2.77;;
44272;SDS011;29964;17.182;-96.766;2023-05-17T09:52:27;3.00;;;2.33;;
44272;SDS011;29964;17.182;-96.766;2023-05-17T09:54:57;12.37;;;2.20;;
44272;SDS011;29964;17.182;-96.766;2023-05-17T09:57:27;5.83;;;2.60;;
44272;SDS011;29964;17.182;-96.766;2023-05-17T09:59:55;7.07;;;2.33;;
44272;SDS011;29964;17.182;-96.766;2023-05-17T10:02:25;3.33;;;2.60;;
44272;SDS011;29964;17.182;-96.766;2023-05-17T10:04:54;2.70;;;2.00;;
44272;SDS011;29964;17.182;-96.766;2023-05-17T10:07:21;6.50;;;2.97;;
44272;SDS011;29964;17.182;-96.766;2023-05-17T10:09:50;3.23;;;2.37;;
44272;SDS011;29964;17.182;-96.766;2023-05-17T10:12:18;3.83;;;2.23;;
44272;SDS011;29964;17.182;-96.766;2023-05-17T10:14:47;3.03;;;2.37;;
44272;SDS011;29964;17.182;-96.766;2023-05-17T10:17:14;3.20;;;2.63;;
44272;SDS011;29964;17.182;-96.766;2023-05-17T10:19:42;2.83;;;2.10;;
44272;SDS011;29964;17.182;-96.766;2023-05-17T10:22:09;6.40;;;3.33;;
44272;SDS011;29964;17.182;-96.766;2023-05-17T10:24:36;6.23;;;2.27;;
44272;SDS011;29964;17.182;-96.766;2023-05-17T10:27:04;3.77;;;1.97;;
44272;SDS011;29964;17.182;-96.766;2023-05-17T10:29:32;3.60;;;2.43;;
44272;SDS011;29964;17.182;-96.766;2023-05-17T10:32:02;3.83;;;2.00;;
44272;SDS011;29964;17.182;-96.766;2023-05-17T10:34:30;9.23;;;2.00;;
44272;SDS011;29964;17.182;-96.766;2023-05-17T10:36:57;3.43;;;2.30;;
44272;SDS011;29964;17.182;-96.766;2023-05-17T10:39:25;2.90;;;2.07;;
44272;SDS011;29964;17.182;-96.766;2023-05-17T10:41:52;3.83;;;2.93;;
44272;SDS011;29964;17.182;-96.766;2023-05-17T10:44:20;3.70;;;2.50;;
44272;SDS011;29964;17.182;-96.766;2023-05-17T10:46:51;3.73;;;2.10;;
44272;SDS011;29964;17.182;-96.766;2023-05-17T10:49:19;3.00;;;2.50;;
44272;SDS011;29964;17.182;-96.766;2023-05-17T10:51:46;2.20;;;1.83;;
44272;SDS011;29964;17.182;-96.766;2023-05-17T10:54:13;5.53;;;3.27;;
44272;SDS011;29964;17.182;-96.766;2023-05-17T10:56:49;2.80;;;2.30;;
44272;SDS011;29964;17.182;-96.766;2023-05-17T10:59:17;3.70;;;2.27;;
44272;SDS011;29964;17.182;-96.766;2023-05-17T11:02:07;3.37;;;2.33;;
44272;SDS011;29964;17.182;-96.766;2023-05-17T11:04:40;3.53;;;2.50;;
44272;SDS011;29964;17.182;-96.766;2023-05-17T11:09:49;2.97;;;2.47;;
44272;SDS011;29964;17.182;-96.766;2023-05-17T11:12:26;3.60;;;2.10;;
44272;SDS011;29964;17.182;-96.766;2023-05-17T11:14:53;3.70;;;2.70;;
44272;SDS011;29964;17.182;-96.766;2023-05-17T11:17:22;2.57;;;2.10;;
44272;SDS011;29964;17.182;-96.766;2023-05-17T11:22:26;3.70;;;2.57;;
44272;SDS011;29964;17.182;-96.766;2023-05-17T11:24:55;4.63;;;2.43;;
44272;SDS011;29964;17.182;-96.766;2023-05-17T11:27:22;3.50;;;2.27;;
44272;SDS011;29964;17.182;-96.766;2023-05-17T11:29:53;2.77;;;2.33;;
44272;SDS011;29964;17.182;-96.766;2023-05-17T11:32:30;4.30;;;2.63;;
44272;SDS011;29964;17.182;-96.766;2023-05-17T11:35:01;6.13;;;3.03;;
44272;SDS011;29964;17.182;-96.766;2023-05-17T11:37:28;3.30;;;2.40;;
44272;SDS011;29964;17.182;-96.766;2023-05-17T11:42:29;10.13;;;2.53;;
44272;SDS011;29964;17.182;-96.766;2023-05-17T11:44:56;3.40;;;2.43;;
44272;SDS011;29964;17.182;-96.766;2023-05-17T11:47:23;5.17;;;2.60;;
44272;SDS011;29964;17.182;-96.766;2023-05-17T11:49:50;6.77;;;3.77;;
44272;SDS011;29964;17.182;-96.766;2023-05-17T11:52:17;3.83;;;2.43;;
44272;SDS011;29964;17.182;-96.766;2023-05-17T11:54:44;9.17;;;3.00;;
44272;SDS011;29964;17.182;-96.766;2023-05-17T11:57:11;4.03;;;2.73;;
44272;SDS011;29964;17.182;-96.766;2023-05-17T11:59:42;4.87;;;3.13;;
44272;SDS011;29964;17.182;-96.766;2023-05-17T12:02:09;3.97;;;2.70;;
44272;SDS011;29964;17.182;-96.766;2023-05-17T12:04:36;6.93;;;2.67;;
44272;SDS011;29964;17.182;-96.766;2023-05-17T12:07:03;3.53;;;2.40;;
44272;SDS011;29964;17.182;-96.766;2023-05-17T12:09:30;2.77;;;2.20;;
44272;SDS011;29964;17.182;-96.766;2023-05-17T12:11:57;5.70;;;2.77;;
44272;SDS011;29964;17.182;-96.766;2023-05-17T12:14:24;4.23;;;2.50;;
44272;SDS011;29964;17.182;-96.766;2023-05-17T12:16:51;3.33;;;2.03;;
44272;SDS011;29964;17.182;-96.766;2023-05-17T12:19:21;7.90;;;2.80;;
44272;SDS011;29964;17.182;-96.766;2023-05-17T12:21:49;3.50;;;2.43;;
44272;SDS011;29964;17.182;-96.766;2023-05-17T12:24:16;5.70;;;2.80;;
44272;SDS011;29964;17.182;-96.766;2023-05-17T12:26:43;5.23;;;3.40;;
44272;SDS011;29964;17.182;-96.766;2023-05-17T12:29:11;3.13;;;2.40;;
44272;SDS011;29964;17.182;-96.766;2023-05-17T12:31:43;2.90;;;2.40;;
44272;SDS011;29964;17.182;-96.766;2023-05-17T12:34:10;3.47;;;2.40;;
44272;SDS011;29964;17.182;-96.766;2023-05-17T12:36:38;3.43;;;1.97;;
44272;SDS011;29964;17.182;-96.766;2023-05-17T12:39:05;3.60;;;2.63;;
44272;SDS011;29964;17.182;-96.766;2023-05-17T12:41:37;9.23;;;3.77;;
44272;SDS011;29964;17.182;-96.766;2023-05-17T12:44:05;8.23;;;4.00;;
44272;SDS011;29964;17.182;-96.766;2023-05-17T12:46:33;4.07;;;2.57;;
44272;SDS011;29964;17.182;-96.766;2023-05-17T12:49:00;4.47;;;3.33;;
44272;SDS011;29964;17.182;-96.766;2023-05-17T12:51:40;4.97;;;3.47;;
44272;SDS011;29964;17.182;-96.766;2023-05-17T12:54:07;6.20;;;3.10;;
44272;SDS011;29964;17.182;-96.766;2023-05-17T12:56:34;3.57;;;2.63;;
44272;SDS011;29964;17.182;-96.766;2023-05-17T12:59:05;14.10;;;3.30;;
44272;SDS011;29964;17.182;-96.766;2023-05-17T13:01:37;5.60;;;2.80;;
44272;SDS011;29964;17.182;-96.766;2023-05-17T13:04:04;3.10;;;2.50;;
44272;SDS011;29964;17.182;-96.766;2023-05-17T13:06:47;8.43;;;3.27;;
44272;SDS011;29964;17.182;-96.766;2023-05-17T13:09:14;3.40;;;2.70;;
44272;SDS011;29964;17.182;-96.766;2023-05-17T13:11:48;3.87;;;2.83;;
44272;SDS011;29964;17.182;-96.766;2023-05-17T13:14:31;4.83;;;3.13;;
44272;SDS011;29964;17.182;-96.766;2023-05-17T13:16:58;6.83;;;3.30;;
44272;SDS011;29964;17.182;-96.766;2023-05-17T13:19:25;3.60;;;2.53;;
44272;SDS011;29964;17.182;-96.766;2023-05-17T13:21:51;10.37;;;2.83;;
44272;SDS011;29964;17.182;-96.766;2023-05-17T13:24:18;4.30;;;2.43;;
44272;SDS011;29964;17.182;-96.766;2023-05-17T13:26:45;5.00;;;2.27;;
44272;SDS011;29964;17.182;-96.766;2023-05-17T13:29:12;10.07;;;2.80;;
44272;SDS011;29964;17.182;-96.766;2023-05-17T13:31:38;2.87;;;2.23;;
44272;SDS011;29964;17.182;-96.766;2023-05-17T13:34:07;2.90;;;2.10;;
44272;SDS011;29964;17.182;-96.766;2023-05-17T13:36:33;6.90;;;2.17;;
44272;SDS011;29964;17.182;-96.766;2023-05-17T13:39:00;5.53;;;2.30;;
44272;SDS011;29964;17.182;-96.766;2023-05-17T13:41:28;4.17;;;2.53;;
44272;SDS011;29964;17.182;-96.766;2023-05-17T13:43:55;4.93;;;2.63;;
44272;SDS011;29964;17.182;-96.766;2023-05-17T13:46:22;4.83;;;2.90;;
44272;SDS011;29964;17.182;-96.766;2023-05-17T13:48:49;5.10;;;3.43;;
44272;SDS011;29964;17.182;-96.766;2023-05-17T13:51:15;5.33;;;2.93;;
44272;SDS011;29964;17.182;-96.766;2023-05-17T13:53:42;3.90;;;2.40;;
44272;SDS011;29964;17.182;-96.766;2023-05-17T13:56:09;3.80;;;3.07;;
44272;SDS011;29964;17.182;-96.766;2023-05-17T13:58:36;3.40;;;2.50;;
44272;SDS011;29964;17.182;-96.766;2023-05-17T14:01:02;3.23;;;2.20;;
44272;SDS011;29964;17.182;-96.766;2023-05-17T14:03:30;8.63;;;3.60;;
44272;SDS011;29964;17.182;-96.766;2023-05-17T14:05:57;4.03;;;2.73;;
44272;SDS011;29964;17.182;-96.766;2023-05-17T14:08:24;6.63;;;2.23;;
44272;SDS011;29964;17.182;-96.766;2023-05-17T14:10:51;2.37;;;1.70;;
44272;SDS011;29964;17.182;-96.766;2023-05-17T14:13:17;20.37;;;2.40;;
44272;SDS011;29964;17.182;-96.766;2023-05-17T14:15:44;4.10;;;2.57;;
44272;SDS011;29964;17.182;-96.766;2023-05-17T14:18:11;2.83;;;2.10;;
44272;SDS011;29964;17.182;-96.766;2023-05-17T14:20:38;2.10;;;1.70;;
44272;SDS011;29964;17.182;-96.766;2023-05-17T14:23:04;5.47;;;3.07;;
44272;SDS011;29964;17.182;-96.766;2023-05-17T14:25:31;2.03;;;1.57;;
44272;SDS011;29964;17.182;-96.766;2023-05-17T14:27:58;1.43;;;1.30;;
44272;SDS011;29964;17.182;-96.766;2023-05-17T14:30:25;1.90;;;1.50;;
44272;SDS011;29964;17.182;-96.766;2023-05-17T14:32:52;4.17;;;2.17;;
44272;SDS011;29964;17.182;-96.766;2023-05-17T14:35:18;4.63;;;2.47;;
44272;SDS011;29964;17.182;-96.766;2023-05-17T14:37:45;3.27;;;2.00;;
44272;SDS011;29964;17.182;-96.766;2023-05-17T14:40:12;2.27;;;1.57;;
44272;SDS011;29964;17.182;-96.766;2023-05-17T14:42:39;2.07;;;1.77;;